Time;durP1;ratioP1;P1;durP2;ratioP2;P2;SDS_P1;SDS_P2;PMS_P1;PMS_P2;Temp;Humidity;BMP_temperature;BMP_pressure;BME280_temperature;BME280_humidity;BME280_pressure;Samples;Min_cycle;Max_cycle;Signal;HPM_P1;HPM_P2
2021/08/12 00:02:08;;;;;;;13.47;11.00;;;;;;;16.77;100.00;101651.63;2618895;47;20932;-49
2021/08/12 00:04:38;;;;;;;17.37;10.80;;;;;;;16.71;100.00;101661.03;2638659;36;20584;-47
2021/08/12 00:07:08;;;;;;;20.07;12.40;;;;;;;16.80;100.00;101659.53;2617226;47;20424;-51
2021/08/12 00:09:37;;;;;;;16.87;11.53;;;;;;;16.95;100.00;101653.88;2617378;47;20466;-49
2021/08/12 00:12:09;;;;;;;15.30;11.27;;;;;;;16.71;100.00;101644.50;2617602;47;20464;-50
2021/08/12 00:14:39;;;;;;;15.48;10.75;;;;;;;16.63;100.00;101643.38;2635998;36;20440;-49
2021/08/12 00:17:09;;;;;;;20.63;11.20;;;;;;;16.55;100.00;101649.25;2616673;47;20211;-49
2021/08/12 00:19:38;;;;;;;15.33;11.63;;;;;;;16.80;100.00;101644.78;2637027;36;20455;-50
2021/08/12 00:22:08;;;;;;;14.23;11.68;;;;;;;16.85;100.00;101642.31;2616414;47;20472;-48
2021/08/12 00:24:37;;;;;;;13.35;10.57;;;;;;;16.76;100.00;101642.91;2616990;47;20171;-49
2021/08/12 00:27:08;;;;;;;18.73;11.20;;;;;;;16.57;100.00;101641.47;2617283;47;20159;-48
2021/08/12 00:29:38;;;;;;;12.50;9.60;;;;;;;16.57;100.00;101637.13;2617293;47;20450;-51
2021/08/12 00:32:08;;;;;;;13.93;10.77;;;;;;;16.55;100.00;101632.72;2617691;54;20423;-47
2021/08/12 00:34:37;;;;;;;17.93;11.63;;;;;;;16.74;100.00;101639.38;2617848;47;20416;-46
2021/08/12 00:37:07;;;;;;;18.30;11.87;;;;;;;16.76;100.00;101632.50;2618048;46;20380;-48
2021/08/12 00:39:37;;;;;;;14.00;10.57;;;;;;;16.71;100.00;101634.97;2618874;39;20728;-50
2021/08/12 00:42:08;;;;;;;19.25;10.73;;;;;;;16.75;100.00;101635.94;2619198;39;20814;-48
2021/08/12 00:44:38;;;;;;;13.13;10.30;;;;;;;16.77;100.00;101634.25;2618543;39;20978;-49
2021/08/12 00:47:07;;;;;;;14.85;10.55;;;;;;;16.75;100.00;101635.94;2619630;46;20404;-47
2021/08/12 00:49:37;;;;;;;16.67;10.50;;;;;;;16.67;100.00;101635.69;2618413;46;20163;-47
2021/08/12 00:52:08;;;;;;;19.43;11.00;;;;;;;16.60;100.00;101639.84;2618673;46;20483;-48
2021/08/12 00:54:39;;;;;;;23.17;10.90;;;;;;;16.63;100.00;101639.06;2619413;54;20437;-50
2021/08/12 00:57:11;;;;;;;15.93;10.73;;;;;;;16.70;100.00;101632.31;2618543;46;20405;-49
2021/08/12 00:59:42;;;;;;;18.20;11.43;;;;;;;16.66;100.00;101636.53;2618284;46;20408;-50
2021/08/12 01:02:12;;;;;;;18.00;11.57;;;;;;;16.74;100.00;101635.06;2619793;47;20435;-50
2021/08/12 01:04:42;;;;;;;14.93;10.50;;;;;;;16.76;100.00;101629.88;2636942;36;20434;-49
2021/08/12 01:07:13;;;;;;;19.30;12.60;;;;;;;16.71;100.00;101628.84;2618220;46;20423;-49
2021/08/12 01:09:48;;;;;;;13.38;10.90;;;;;;;16.76;100.00;101629.03;2619020;46;20423;-49
2021/08/12 01:12:23;;;;;;;15.77;11.70;;;;;;;16.67;100.00;101619.19;2620220;39;20538;-52
2021/08/12 01:14:58;;;;;;;13.70;11.67;;;;;;;16.61;100.00;101625.09;2615380;46;20401;-51
2021/08/12 01:17:34;;;;;;;16.23;11.47;;;;;;;16.62;100.00;101624.28;2619818;46;20400;-51
2021/08/12 01:20:26;;;;;;;17.87;12.60;;;;;;;16.59;100.00;101618.97;2618099;46;20409;-50
2021/08/12 01:22:56;;;;;;;18.10;12.50;;;;;;;16.69;100.00;101625.34;2618549;46;20384;-50
2021/08/12 01:25:28;;;;;;;16.20;11.90;;;;;;;16.73;100.00;101632.41;2617986;46;20424;-50
2021/08/12 01:28:17;;;;;;;14.97;11.63;;;;;;;16.76;100.00;101622.06;2618594;46;20395;-49
2021/08/12 01:30:56;;;;;;;16.30;12.07;;;;;;;16.76;100.00;101627.28;2619434;47;20424;-51
2021/08/12 01:33:32;;;;;;;14.43;11.43;;;;;;;16.77;100.00;101626.44;2619684;47;20896;-52
2021/08/12 01:36:05;;;;;;;16.80;11.80;;;;;;;16.69;100.00;101626.22;2636042;36;20423;-50
2021/08/12 01:38:35;;;;;;;15.60;12.30;;;;;;;16.77;100.00;101622.97;2618199;47;20451;-50
2021/08/12 01:41:05;;;;;;;17.03;11.23;;;;;;;16.44;100.00;101619.38;2617853;46;20449;-50
2021/08/12 01:43:35;;;;;;;19.08;12.30;;;;;;;16.54;100.00;101621.44;2618306;47;20399;-50
2021/08/12 01:46:07;;;;;;;12.45;10.10;;;;;;;16.59;100.00;101626.78;2617304;47;20151;-49
2021/08/12 01:48:37;;;;;;;14.40;10.77;;;;;;;16.58;100.00;101622.41;2618529;46;20178;-49
2021/08/12 01:51:08;;;;;;;19.20;12.70;;;;;;;16.54;100.00;101626.63;2619784;36;20478;-50
2021/08/12 01:53:39;;;;;;;17.48;11.88;;;;;;;16.49;100.00;101628.22;2618461;46;20380;-50
2021/08/12 01:56:09;;;;;;;16.75;11.38;;;;;;;16.53;100.00;101624.88;2617638;54;20637;-51
2021/08/12 01:58:39;;;;;;;15.27;11.97;;;;;;;16.42;100.00;101627.13;2618367;46;20162;-53
2021/08/12 02:01:09;;;;;;;21.00;11.97;;;;;;;16.43;100.00;101625.41;2617552;47;20446;-51
2021/08/12 02:03:39;;;;;;;16.33;11.20;;;;;;;16.48;100.00;101631.66;2618229;46;20421;-47
2021/08/12 02:06:10;;;;;;;15.95;10.48;;;;;;;16.39;100.00;101626.16;2617648;36;20206;-50
2021/08/12 02:08:40;;;;;;;14.37;10.80;;;;;;;16.31;100.00;101618.97;2619704;46;20148;-48
2021/08/12 02:11:10;;;;;;;18.90;12.20;;;;;;;16.35;100.00;101619.97;2617923;47;20417;-49
2021/08/12 02:13:39;;;;;;;17.23;11.47;;;;;;;16.38;100.00;101616.56;2619701;46;20396;-50
2021/08/12 02:16:09;;;;;;;17.83;12.00;;;;;;;16.40;100.00;101622.72;2617854;47;20497;-50
2021/08/12 02:18:41;;;;;;;20.17;11.93;;;;;;;16.37;100.00;101617.41;2618386;47;20411;-49
2021/08/12 02:21:15;;;;;;;17.90;11.88;;;;;;;16.21;100.00;101619.53;2618670;46;20438;-50
2021/08/12 02:23:47;;;;;;;16.57;12.53;;;;;;;16.33;100.00;101630.34;2619187;46;20152;-51
2021/08/12 02:26:21;;;;;;;16.33;12.60;;;;;;;16.34;100.00;101620.78;2619040;46;20427;-47
2021/08/12 02:28:51;;;;;;;21.37;13.13;;;;;;;16.36;100.00;101626.06;2618303;47;20412;-50
2021/08/12 02:31:23;;;;;;;17.50;12.60;;;;;;;16.32;100.00;101625.94;2636261;36;20521;-48
2021/08/12 02:33:52;;;;;;;15.90;11.50;;;;;;;16.28;100.00;101628.41;2618014;46;20503;-47
2021/08/12 02:36:23;;;;;;;16.73;11.80;;;;;;;16.21;100.00;101622.16;2636043;36;20448;-51
2021/08/12 02:38:54;;;;;;;19.00;13.43;;;;;;;16.15;100.00;101614.13;2618745;39;20792;-50
2021/08/12 02:41:26;;;;;;;15.20;11.30;;;;;;;16.13;100.00;101618.38;2636105;36;20530;-48
2021/08/12 02:43:56;;;;;;;17.83;12.20;;;;;;;16.20;100.00;101616.03;2617990;47;20392;-50
2021/08/12 02:46:28;;;;;;;17.07;12.23;;;;;;;16.16;100.00;101615.91;2620818;36;20453;-49
2021/08/12 02:49:00;;;;;;;23.23;11.40;;;;;;;16.12;100.00;101611.41;2631023;36;20902;-53
2021/08/12 02:51:34;;;;;;;15.93;11.80;;;;;;;16.13;100.00;101619.28;2617871;47;20924;-49
2021/08/12 02:54:05;;;;;;;19.13;13.53;;;;;;;16.19;100.00;101613.38;2636766;36;20489;-50
2021/08/12 02:56:36;;;;;;;15.10;11.43;;;;;;;16.06;100.00;101607.78;2617602;46;20408;-49
2021/08/12 02:59:06;;;;;;;16.53;12.00;;;;;;;16.22;100.00;101600.47;2617660;47;20411;-52
2021/08/12 03:01:37;;;;;;;13.80;11.37;;;;;;;16.10;100.00;101607.88;2618265;39;20763;-50
2021/08/12 03:04:07;;;;;;;17.20;13.27;;;;;;;16.18;100.00;101607.31;2617926;46;20460;-51
2021/08/12 03:06:40;;;;;;;17.93;12.60;;;;;;;16.17;100.00;101602.94;2617868;47;20448;-50
2021/08/12 03:09:11;;;;;;;16.83;12.13;;;;;;;16.05;100.00;101606.00;2617721;47;20399;-50
2021/08/12 03:11:41;;;;;;;18.73;12.83;;;;;;;15.95;100.00;101611.78;2635904;36;20443;-50
2021/08/12 03:14:11;;;;;;;18.43;13.23;;;;;;;15.96;100.00;101612.63;2617618;47;20399;-50
2021/08/12 03:16:41;;;;;;;20.97;13.70;;;;;;;16.16;100.00;101619.38;2635658;36;20537;-53
2021/08/12 03:19:11;;;;;;;19.03;13.90;;;;;;;16.15;100.00;101615.00;2617828;39;20720;-52
2021/08/12 03:22:00;;;;;;;20.77;13.50;;;;;;;16.25;100.00;101618.78;2635306;36;20463;-49
2021/08/12 03:24:31;;;;;;;24.00;14.00;;;;;;;16.16;100.00;101616.75;2617338;47;20429;-48
2021/08/12 03:27:00;;;;;;;18.53;14.10;;;;;;;16.20;100.00;101622.94;2617520;47;20403;-51
2021/08/12 03:29:30;;;;;;;17.53;13.23;;;;;;;16.14;100.00;101620.16;2617210;47;20416;-52
2021/08/12 03:31:59;;;;;;;21.00;13.03;;;;;;;16.10;100.00;101616.56;2617340;54;20983;-50
2021/08/12 03:34:29;;;;;;;19.30;13.80;;;;;;;16.13;100.00;101615.78;2617196;47;20403;-53
2021/08/12 03:37:00;;;;;;;17.98;13.23;;;;;;;16.08;100.00;101619.94;2617257;47;20408;-52
2021/08/12 03:39:30;;;;;;;19.50;13.77;;;;;;;16.11;100.00;101620.06;2635528;36;20202;-52
2021/08/12 03:42:00;;;;;;;18.87;13.10;;;;;;;16.04;100.00;101621.56;2617224;47;20190;-52
2021/08/12 03:44:30;;;;;;;18.70;13.00;;;;;;;16.07;100.00;101619.09;2616855;47;20416;-48
2021/08/12 03:47:06;;;;;;;18.47;13.50;;;;;;;16.17;100.00;101628.06;2617773;39;20887;-51
2021/08/12 03:49:36;;;;;;;19.93;13.10;;;;;;;16.22;100.00;101626.50;2617464;54;20903;-48
2021/08/12 03:52:08;;;;;;;16.53;12.53;;;;;;;16.18;100.00;101622.03;2617393;47;20431;-49
2021/08/12 03:54:38;;;;;;;16.63;13.23;;;;;;;16.18;100.00;101625.53;2620280;36;20440;-50
2021/08/12 03:57:08;;;;;;;17.07;12.87;;;;;;;16.20;100.00;101630.75;2617748;39;20773;-50
2021/08/12 03:59:38;;;;;;;20.80;13.60;;;;;;;16.22;100.00;101626.50;2617358;47;20414;-50
2021/08/12 04:02:07;;;;;;;19.10;13.67;;;;;;;16.14;100.00;101625.34;2618058;39;20770;-49
2021/08/12 04:04:37;;;;;;;20.37;13.57;;;;;;;16.11;100.00;101631.38;2617137;47;20459;-52
2021/08/12 04:07:08;;;;;;;18.13;13.50;;;;;;;16.06;100.00;101641.59;2617712;47;20408;-49
2021/08/12 04:09:38;;;;;;;27.27;14.57;;;;;;;15.96;100.00;101636.06;2625259;36;20432;-51
2021/08/12 04:12:08;;;;;;;20.50;13.30;;;;;;;15.94;100.00;101633.41;2618659;46;20424;-51
2021/08/12 04:14:38;;;;;;;18.40;13.30;;;;;;;15.95;100.00;101631.69;2618919;46;20410;-51
2021/08/12 04:17:08;;;;;;;20.47;13.67;;;;;;;16.03;100.00;101632.81;2619383;46;20402;-49
2021/08/12 04:19:37;;;;;;;20.13;13.43;;;;;;;16.06;100.00;101639.00;2620824;36;20889;-50
2021/08/12 04:22:08;;;;;;;17.23;13.50;;;;;;;16.15;100.00;101627.16;2618402;46;20422;-51
2021/08/12 04:24:38;;;;;;;18.97;13.83;;;;;;;16.04;100.00;101632.88;2637263;36;20439;-49
2021/08/12 04:27:07;;;;;;;19.07;13.30;;;;;;;16.00;100.00;101636.19;2618128;47;20398;-51
2021/08/12 04:29:37;;;;;;;19.60;13.70;;;;;;;16.08;100.00;101627.75;2618846;47;20475;-51
2021/08/12 04:32:08;;;;;;;18.93;13.57;;;;;;;15.96;100.00;101626.53;2618450;46;20422;-50
2021/08/12 04:34:37;;;;;;;16.97;12.20;;;;;;;16.04;100.00;101634.59;2618190;46;20390;-49
2021/08/12 04:37:08;;;;;;;18.80;13.40;;;;;;;16.02;100.00;101626.75;2619245;47;20879;-47
2021/08/12 04:39:37;;;;;;;17.73;13.10;;;;;;;16.04;100.00;101625.06;2617793;47;20466;-48
2021/08/12 04:42:07;;;;;;;15.57;13.07;;;;;;;16.02;100.00;101621.53;2618261;46;20419;-48
2021/08/12 04:44:37;;;;;;;17.83;12.68;;;;;;;16.11;100.00;101626.16;2636338;36;20271;-48
2021/08/12 04:47:07;;;;;;;16.97;12.17;;;;;;;16.20;100.00;101621.25;2618139;47;20151;-50
2021/08/12 04:49:36;;;;;;;16.70;12.52;;;;;;;16.11;100.00;101620.06;2621174;36;20813;-50
2021/08/12 04:52:09;;;;;;;14.17;11.47;;;;;;;16.15;100.00;101622.81;2618161;46;20167;-47
2021/08/12 04:54:38;;;;;;;17.17;12.17;;;;;;;16.23;100.00;101623.06;2617816;46;20431;-48
2021/08/12 04:57:08;;;;;;;18.17;12.60;;;;;;;16.17;100.00;101621.16;2617771;46;20449;-48
2021/08/12 04:59:37;;;;;;;17.60;11.47;;;;;;;16.20;100.00;101630.75;2635521;36;20444;-48
2021/08/12 05:02:07;;;;;;;18.27;12.57;;;;;;;16.12;100.00;101624.44;2618920;46;20460;-49
2021/08/12 05:04:37;;;;;;;28.63;12.70;;;;;;;16.04;100.00;101632.88;2617595;46;20442;-47
2021/08/12 05:07:08;;;;;;;16.70;11.87;;;;;;;16.15;100.00;101635.81;2618136;46;20414;-47
2021/08/12 05:09:38;;;;;;;18.50;12.17;;;;;;;16.00;100.00;101641.41;2618769;36;20553;-48
2021/08/12 05:12:08;;;;;;;15.60;11.80;;;;;;;16.13;100.00;101641.81;2618052;46;20429;-49
2021/08/12 05:14:38;;;;;;;15.87;11.40;;;;;;;16.22;100.00;101643.84;2618550;39;20881;-48
2021/08/12 05:17:07;;;;;;;15.97;11.37;;;;;;;16.53;100.00;101637.00;2617973;46;20416;-48
2021/08/12 05:19:37;;;;;;;15.50;11.10;;;;;;;16.66;100.00;101641.75;2619176;46;20400;-50
2021/08/12 05:22:08;;;;;;;20.03;11.87;;;;;;;16.69;100.00;101640.97;2618407;47;20159;-52
2021/08/12 05:24:38;;;;;;;19.97;11.63;;;;;;;16.71;100.00;101645.38;2618916;47;20419;-51
2021/08/12 05:27:08;;;;;;;18.60;11.17;;;;;;;16.62;100.00;101634.69;2617814;46;20423;-48
2021/08/12 05:29:37;;;;;;;17.00;11.90;;;;;;;16.63;100.00;101630.34;2617719;46;20432;-52
2021/08/12 05:32:07;;;;;;;16.63;11.50;;;;;;;16.75;100.00;101628.13;2619360;46;20455;-51
2021/08/12 05:34:37;;;;;;;15.13;11.03;;;;;;;16.76;100.00;101629.88;2619041;47;20439;-50
2021/08/12 05:37:08;;;;;;;14.97;11.70;;;;;;;16.84;100.00;101630.13;2619076;47;20428;-47
2021/08/12 05:39:38;;;;;;;17.00;12.17;;;;;;;17.08;100.00;101619.56;2640331;36;20485;-49
2021/08/12 05:42:07;;;;;;;16.10;11.97;;;;;;;17.07;100.00;101617.78;2617878;47;20426;-48
2021/08/12 05:44:37;;;;;;;19.83;12.10;;;;;;;16.99;100.00;101616.66;2617867;54;20406;-47
2021/08/12 05:47:07;;;;;;;19.70;11.70;;;;;;;16.97;100.00;101615.75;2617925;46;20162;-50
2021/08/12 05:49:36;;;;;;;18.57;12.00;;;;;;;17.06;100.00;101613.41;2617837;46;20400;-48
2021/08/12 05:52:07;;;;;;;25.50;19.20;;;;;;;17.32;100.00;101612.41;2617931;46;20522;-48
2021/08/12 05:54:37;;;;;;;28.37;16.07;;;;;;;17.47;100.00;101614.50;2635885;36;20194;-48
2021/08/12 05:57:08;;;;;;;36.63;24.57;;;;;;;17.62;100.00;101607.09;2617474;46;20451;-53
2021/08/12 05:59:37;;;;;;;35.97;25.20;;;;;;;17.45;100.00;101600.56;2617545;46;20410;-49
2021/08/12 06:02:07;;;;;;;36.13;21.33;;;;;;;17.27;100.00;101594.88;2618302;39;20724;-49
2021/08/12 06:04:37;;;;;;;15.67;11.07;;;;;;;17.18;100.00;101607.66;2617606;46;20396;-47
2021/08/12 06:07:06;;;;;;;13.77;11.70;;;;;;;17.21;100.00;101614.69;2617664;46;20392;-51
2021/08/12 06:09:37;;;;;;;15.57;11.03;;;;;;;17.14;100.00;101611.91;2617499;46;20419;-49
2021/08/12 06:12:08;;;;;;;19.30;12.43;;;;;;;17.16;100.00;101604.13;2617872;47;20428;-52
2021/08/12 06:14:37;;;;;;;16.23;11.50;;;;;;;17.11;100.00;101608.31;2617581;46;21198;-47
2021/08/12 06:17:08;;;;;;;20.23;11.77;;;;;;;17.09;100.00;101610.03;2617688;46;20411;-49
2021/08/12 06:19:41;;;;;;;18.90;11.23;;;;;;;17.17;100.00;101612.84;2617798;47;20399;-52
2021/08/12 06:22:10;;;;;;;15.07;10.90;;;;;;;17.34;100.00;101614.19;2617460;47;20435;-48
2021/08/12 06:24:41;;;;;;;19.43;10.27;;;;;;;17.26;100.00;101610.47;2617407;46;20416;-50
2021/08/12 06:27:11;;;;;;;18.73;10.17;;;;;;;17.21;100.00;101609.47;2617801;47;20404;-51
2021/08/12 06:29:40;;;;;;;13.50;10.53;;;;;;;17.17;100.00;101608.50;2632247;36;20444;-49
2021/08/12 06:32:11;;;;;;;13.87;9.43;;;;;;;17.30;100.00;101609.75;2618921;47;20434;-47
2021/08/12 06:34:40;;;;;;;16.43;10.43;;;;;;;17.34;100.00;101601.13;2618148;36;20455;-49
2021/08/12 06:37:10;;;;;;;18.60;10.60;;;;;;;17.45;100.00;101613.59;2619014;46;20439;-50
2021/08/12 06:39:39;;;;;;;18.83;11.07;;;;;;;17.49;100.00;101612.84;2618668;46;20163;-49
2021/08/12 06:42:10;;;;;;;34.63;12.03;;;;;;;17.52;100.00;101607.69;2619227;47;20906;-49
2021/08/12 06:44:40;;;;;;;15.23;10.70;;;;;;;17.58;100.00;101610.47;2620844;36;20946;-50
2021/08/12 06:47:09;;;;;;;16.27;9.93;;;;;;;17.66;100.00;101608.06;2617588;47;20404;-52
2021/08/12 06:49:39;;;;;;;18.13;9.57;;;;;;;17.63;100.00;101614.09;2617432;47;20420;-50
2021/08/12 06:52:10;;;;;;;79.53;51.73;;;;;;;17.77;100.00;101617.06;2618028;47;20199;-49
2021/08/12 06:54:39;;;;;;;23.07;13.13;;;;;;;18.09;100.00;101610.91;2617673;47;20385;-47
2021/08/12 06:57:10;;;;;;;28.37;14.30;;;;;;;18.09;100.00;101605.66;2619010;47;20398;-48
2021/08/12 06:59:39;;;;;;;40.87;24.43;;;;;;;18.31;100.00;101603.59;2641253;36;20438;-50
2021/08/12 07:02:09;;;;;;;14.57;10.23;;;;;;;18.40;100.00;101598.56;2617252;47;21731;-51
2021/08/12 07:04:39;;;;;;;15.80;9.00;;;;;;;18.44;100.00;101592.56;2635703;36;20434;-50
2021/08/12 07:07:08;;;;;;;16.60;9.10;;;;;;;18.56;100.00;101594.56;2616869;46;20403;-50
2021/08/12 07:09:38;;;;;;;11.18;7.70;;;;;;;18.63;100.00;101595.59;2617323;46;20419;-51
2021/08/12 07:12:09;;;;;;;28.20;15.33;;;;;;;18.88;100.00;101589.13;2617651;46;20190;-50
2021/08/12 07:14:40;;;;;;;10.47;7.50;;;;;;;18.93;100.00;101581.41;2617478;47;20427;-51
2021/08/12 07:17:09;;;;;;;13.40;9.00;;;;;;;18.93;100.00;101580.50;2617722;46;20426;-50
2021/08/12 07:19:39;;;;;;;15.57;10.47;;;;;;;19.03;100.00;101580.75;2617489;47;20392;-49
2021/08/12 07:22:09;;;;;;;11.67;8.20;;;;;;;19.04;100.00;101576.41;2618685;47;20435;-51
2021/08/12 07:24:38;;;;;;;11.23;6.97;;;;;;;19.12;100.00;101585.28;2617220;47;20437;-50
2021/08/12 07:27:08;;;;;;;8.87;6.37;;;;;;;19.34;100.00;101579.56;2617593;47;20423;-52
2021/08/12 07:29:37;;;;;;;16.47;7.30;;;;;;;19.50;100.00;101581.63;2617533;47;20412;-50
2021/08/12 07:32:10;;;;;;;14.50;8.30;;;;;;;19.62;100.00;101566.97;2617763;47;20422;-52
2021/08/12 07:34:39;;;;;;;16.77;9.83;;;;;;;19.77;100.00;101569.84;2619045;39;20821;-47
2021/08/12 07:37:09;;;;;;;25.13;9.63;;;;;;;19.83;100.00;101561.22;2618621;47;20398;-47
2021/08/12 07:39:38;;;;;;;14.88;7.10;;;;;;;20.07;100.00;101566.00;2618533;47;20432;-48
2021/08/12 07:42:08;;;;;;;7.87;5.30;;;;;;;20.15;100.00;101563.47;2618907;47;20190;-50
2021/08/12 07:44:38;;;;;;;42.00;16.10;;;;;;;20.34;100.00;101563.75;2637432;36;20462;-48
2021/08/12 07:47:09;;;;;;;8.63;6.32;;;;;;;20.36;100.00;101562.91;2618596;47;20427;-50
2021/08/12 07:49:38;;;;;;;11.90;5.82;;;;;;;20.47;100.00;101554.31;2618105;47;20652;-48
2021/08/12 07:52:08;;;;;;;15.18;8.13;;;;;;;20.53;100.00;101556.13;2618413;46;20179;-50
2021/08/12 07:54:38;;;;;;;14.43;5.50;;;;;;;20.40;100.00;101552.47;2618531;46;20157;-53
2021/08/12 07:57:08;;;;;;;11.83;6.30;;;;;;;20.44;100.00;101556.88;2618232;46;20597;-53
2021/08/12 07:59:38;;;;;;;24.60;10.27;;;;;;;20.56;100.00;101550.94;2618924;39;20789;-50
2021/08/12 08:02:11;;;;;;;21.60;14.57;;;;;;;20.61;100.00;101542.25;2618509;46;20412;-50
2021/08/12 08:04:43;;;;;;;10.60;6.30;;;;;;;20.56;100.00;101554.44;2618267;46;20436;-48
2021/08/12 08:07:12;;;;;;;11.70;6.07;;;;;;;20.60;100.00;101550.09;2619324;46;20423;-49
2021/08/12 08:09:42;;;;;;;10.70;5.80;;;;;;;20.50;100.00;101556.97;2620078;39;20723;-52
2021/08/12 08:12:12;;;;;;;15.33;8.30;;;;;;;20.68;100.00;101556.34;2619503;47;20427;-50
2021/08/12 08:14:42;;;;;;;14.90;7.20;;;;;;;21.00;100.00;101557.59;2618224;47;20874;-50
2021/08/12 08:17:13;;;;;;;13.63;6.27;;;;;;;21.14;100.00;101556.03;2618273;47;20929;-50
2021/08/12 08:19:42;;;;;;;10.45;6.10;;;;;;;21.28;100.00;101557.91;2643498;36;20471;-50
2021/08/12 08:22:12;;;;;;;8.80;5.80;;;;;;;21.29;100.00;101559.66;2618985;39;20495;-52
2021/08/12 08:24:41;;;;;;;18.30;7.30;;;;;;;21.35;100.00;101549.22;2618309;46;20436;-52
2021/08/12 08:27:11;;;;;;;25.30;11.00;;;;;;;21.06;100.00;101551.56;2617607;46;20404;-50
2021/08/12 08:29:40;;;;;;;14.30;6.33;;;;;;;21.28;100.00;101563.16;2617967;46;20431;-51
2021/08/12 08:32:10;;;;;;;13.40;6.73;;;;;;;21.43;100.00;101558.03;2618095;46;20446;-51
2021/08/12 08:34:41;;;;;;;8.57;6.10;;;;;;;21.48;100.00;101557.22;2617920;46;20427;-50
2021/08/12 08:37:11;;;;;;;10.63;6.10;;;;;;;21.69;100.00;101560.03;2618546;39;20721;-51
2021/08/12 08:39:40;;;;;;;13.17;7.13;;;;;;;21.40;100.00;101549.25;2635552;36;20447;-48
2021/08/12 08:42:11;;;;;;;10.23;5.80;;;;;;;21.44;100.00;101559.78;2618235;39;20792;-50
2021/08/12 08:44:43;;;;;;;12.13;6.60;;;;;;;21.65;100.00;101560.88;2640930;36;20462;-50
2021/08/12 08:47:12;;;;;;;10.13;5.77;;;;;;;21.84;100.00;101555.78;2617366;47;20408;-50
2021/08/12 08:49:45;;;;;;;20.13;7.67;;;;;;;21.98;100.00;101564.66;2617869;46;20392;-51
2021/08/12 08:52:15;;;;;;;13.27;7.65;;;;;;;22.11;100.00;101556.84;2618325;46;20431;-51
2021/08/12 08:54:46;;;;;;;10.20;6.40;;;;;;;22.02;100.00;101556.78;2617772;47;20152;-50
2021/08/12 08:57:15;;;;;;;8.80;6.10;;;;;;;22.11;100.00;101559.47;2617818;46;20400;-48
2021/08/12 08:59:45;;;;;;;15.15;6.60;;;;;;;22.02;100.00;101556.78;2617688;47;20396;-51
2021/08/12 09:02:14;;;;;;;10.27;6.10;;;;;;;22.18;100.00;101557.75;2618242;47;20175;-50
2021/08/12 09:04:45;;;;;;;36.63;13.73;;;;;;;22.43;100.00;101557.88;2635927;36;20458;-54
2021/08/12 09:07:15;;;;;;;11.90;6.07;;;;;;;22.27;100.00;101549.94;2617805;46;20438;-49
2021/08/12 09:09:44;;;;;;;15.53;7.17;;;;;;;22.18;100.00;101553.38;2617422;47;20424;-49
2021/08/12 09:12:14;;;;;;;10.13;6.17;;;;;;;22.25;100.00;101560.44;2618885;46;20463;-48
2021/08/12 09:14:45;;;;;;;9.67;5.70;;;;;;;22.37;100.00;101553.50;2619314;47;20424;-50
2021/08/12 09:17:26;;;;;;;11.13;6.40;;;;;;;22.46;100.00;101553.50;2619571;46;20491;-50
2021/08/12 09:20:03;;;;;;;9.02;6.20;;;;;;;22.84;100.00;101548.44;2618065;47;20526;-53
2021/08/12 09:22:47;;;;;;;13.73;6.10;;;;;;;22.90;100.00;101543.19;2620292;39;20515;-52
2021/08/12 09:25:17;;;;;;;8.43;5.33;;;;;;;23.02;100.00;101543.22;2639901;36;20484;-52
2021/08/12 09:27:47;;;;;;;11.53;6.10;;;;;;;23.21;100.00;101538.00;2619547;47;20399;-50
2021/08/12 09:30:18;;;;;;;8.97;5.77;;;;;;;23.05;100.00;101542.34;2618192;47;20419;-51
2021/08/12 09:32:49;;;;;;;10.03;6.60;;;;;;;23.40;100.00;101538.06;2619730;47;20400;-48
2021/08/12 09:35:28;;;;;;;10.47;6.23;;;;;;;23.62;100.00;101536.28;2619698;39;20730;-53
2021/08/12 09:38:10;;;;;;;7.73;5.87;;;;;;;23.46;100.00;101538.06;2619184;39;20692;-49
2021/08/12 09:40:39;;;;;;;10.57;5.97;;;;;;;23.73;100.00;101538.91;2619398;46;20426;-52
2021/08/12 09:43:10;;;;;;;10.17;6.40;;;;;;;23.90;100.00;101543.28;2619678;46;20149;-51
2021/08/12 09:45:42;;;;;;;10.80;6.63;;;;;;;23.57;100.00;101538.94;2618145;46;20388;-51
2021/08/12 09:48:16;;;;;;;7.97;5.60;;;;;;;23.39;100.00;101541.56;2620292;39;20758;-50
2021/08/12 09:50:48;;;;;;;12.30;6.60;;;;;;;23.41;100.00;101550.34;2618291;46;20415;-54
2021/08/12 09:53:22;;;;;;;9.43;6.30;;;;;;;23.45;100.00;101539.81;2619374;46;20415;-50
2021/08/12 09:55:52;;;;;;;23.67;15.90;;;;;;;23.67;100.00;101546.81;2636284;36;20242;-50
2021/08/12 09:58:21;;;;;;;7.73;5.70;;;;;;;23.64;100.00;101547.69;2618453;46;20410;-51
2021/08/12 10:00:52;;;;;;;13.20;6.40;;;;;;;23.75;100.00;101537.19;2617773;47;20541;-52
2021/08/12 10:03:32;;;;;;;16.23;11.47;;;;;;;23.78;100.00;101536.31;2618214;46;20386;-52
2021/08/12 10:06:05;;;;;;;9.52;5.30;;;;;;;23.92;100.00;101536.25;2618435;39;20468;-54
2021/08/12 10:08:35;;;;;;;9.10;6.70;;;;;;;23.83;100.00;101535.41;2618499;46;20151;-53
2021/08/12 10:11:23;;;;;;;7.70;5.73;;;;;;;23.96;100.00;101532.75;2617875;47;20967;-50
2021/08/12 10:13:54;;;;;;;9.60;6.83;;;;;;;24.22;100.00;101529.19;2618411;46;20393;-48
2021/08/12 10:16:24;;;;;;;10.23;6.40;;;;;;;24.18;100.00;101528.34;2635544;36;20998;-48
2021/08/12 10:18:54;;;;;;;9.60;6.90;;;;;;;24.59;100.00;101525.53;2618290;46;20398;-52
2021/08/12 10:21:25;;;;;;;9.85;6.95;;;;;;;24.47;100.00;101527.38;2635758;36;21021;-52
2021/08/12 10:23:59;;;;;;;11.77;6.70;;;;;;;24.39;100.00;101519.47;2618292;47;20176;-48
2021/08/12 10:26:32;;;;;;;8.73;6.20;;;;;;;24.27;100.00;101525.66;2635104;36;20431;-51
2021/08/12 10:29:05;;;;;;;14.88;6.30;;;;;;;24.29;100.00;101528.28;2617905;46;20400;-53
2021/08/12 10:31:35;;;;;;;10.87;7.00;;;;;;;24.02;100.00;101527.47;2635748;36;21485;-49
2021/08/12 10:34:06;;;;;;;9.93;6.47;;;;;;;24.34;100.00;101518.63;2637168;36;20707;-50
2021/08/12 10:36:37;;;;;;;13.60;7.60;;;;;;;24.75;100.00;101526.31;2617444;46;20412;-49
2021/08/12 10:39:07;;;;;;;16.63;10.15;;;;;;;25.01;100.00;101515.66;2618352;39;20727;-50
2021/08/12 10:41:38;;;;;;;13.40;7.10;;;;;;;25.24;100.00;101511.09;2617835;47;20159;-50
2021/08/12 10:44:08;;;;;;;9.93;6.13;;;;;;;24.88;100.00;101508.72;2617914;47;20411;-50
2021/08/12 10:46:39;;;;;;;11.77;7.23;;;;;;;25.11;100.00;101519.09;2621288;36;20457;-52
2021/08/12 10:49:30;;;;;;;9.73;6.40;;;;;;;24.96;100.00;101511.31;2618348;39;20764;-48
2021/08/12 10:52:06;;;;;;;12.67;8.93;;;;;;;25.29;100.00;101507.56;2618000;47;20418;-48
2021/08/12 10:54:38;;;;;;;9.27;6.00;;;;;;;25.00;100.00;101510.38;2618279;39;20888;-50
2021/08/12 10:57:19;;;;;;;9.90;6.60;;;;;;;24.82;100.00;101509.63;2618544;39;20819;-49
2021/08/12 10:59:49;;;;;;;9.40;6.37;;;;;;;25.31;100.00;101502.22;2617668;46;20457;-51
2021/08/12 11:02:42;;;;;;;11.13;6.80;;;;;;;25.04;100.00;101512.13;2618203;46;20454;-49
2021/08/12 11:05:13;;;;;;;8.43;6.37;;;;;;;25.09;100.00;101507.69;2617761;47;20415;-48
2021/08/12 11:07:51;;;;;;;14.67;7.70;;;;;;;24.87;100.00;101507.81;2618584;47;20400;-50
2021/08/12 11:10:23;;;;;;;12.50;6.57;;;;;;;25.01;100.00;101504.25;2617908;47;20392;-51
2021/08/12 11:13:10;;;;;;;10.63;7.07;;;;;;;25.35;100.00;101498.69;2618174;47;20387;-50
2021/08/12 11:16:07;;;;;;;9.20;6.97;;;;;;;25.49;100.00;101501.22;2618754;47;20390;-55
2021/08/12 11:18:52;;;;;;;11.47;6.63;;;;;;;25.35;100.00;101498.69;2618439;46;20159;-51
2021/08/12 11:21:43;;;;;;;13.63;7.40;;;;;;;25.04;100.00;101502.47;2637052;36;20470;-52
2021/08/12 11:24:34;;;;;;;10.30;6.75;;;;;;;24.94;100.00;101499.00;2619027;47;20406;-56